Huvudsida
METAR-TAF:

METAR-TAF

Flygplatser :

Hamads internationella flygplats

Doha, Qatar

latitud: 25-16-23N, longitud: 51-36-29E, höjd: 4 m

Aktuellt väderrapport

Denna rapport gjordes för 37 minuter sedan, klockan 08:00 UTC
Vind 7 kt från nordost, varierande mellan nord och ost
Temperatur 22°C
Fuktighet 60%
Tryck 1019 hPa
Sikt: 9000 m

METAR: OTHH 220800Z 05007KT 010V090 9000 NSC 22/14 Q1019 NOSIG

Tid: 11:37 (08:37 UTC)

Väderprognos

Denna rapport gjordes för 3 timmar och 37 minuter sedan, klockan 05:00 UTC
Prognos gäller från 22 kl. 06 UTC till 23 kl. 12 UTC
Vind 8 kt från nord/nordost
Sikt 10 km eller mer
Inga moln under 1 500 m eller inga cumulonimbus
Temporärt
från 22 kl. 18 UTC till 23 kl. 01 UTC
Vind 2 kt varierande vindriktning
Sikt: 3000 m
fuktdis
Blir
från 23 kl. 06 UTC till 23 kl. 08 UTC
Vind 8 kt från ost

TAF: OTHH 220500Z 2206/2312 03008KT CAVOK TEMPO 2218/2301 VRB02KT 3000 BR BECMG 2306/2308 09008KT

Aktuella väderrapporter och prognoser från 4000 flygplatser (METAR- och TAF-rapporter).

De tillgängliga stationerna syns som gula och röda prickar på kartan.

För musen över prickarna för att se namnen på stationerna.

Klicka sedan för att få väderrapporter och prognoser.

För att ändra kartan: Klicka på de gröna knapparna med ett svart kors på för att zooma in; den gröna knappen med ett streck på för att zooma ut; eller på de gröna pilarna för angränsande kartor.


METAR-TAF: